Creston, IA

9:48 PM CDT on July 13, 2014 (GMT -0500)
Creston Municipal (KCSQ) Elev 1293 ft | 41.02 °N, 94.36 °W | Change Station

Current weather conditions updated 13 minutes ago

Mostly Cloudy
Mostly Cloudy
75 °F
Feels Like 75 °F
N
4
Wind Variable Wind from WNW

Tomorrow is forecast to be Much Cooler than today.

Today
High -- | Low -- °F
--% Chance of Precip.
Yesterday
High -- | Low -- °F
Precip. -- in
5:56 AM 8:49 PM
Waning Gibbous, 96% visible
Pressure 29.98 in
Visibility 10.0 miles
Clouds Mostly Cloudy 6000 ft
Dew Point 68 °F
Humidity 78%
Rainfall 0.00 in
Snow Depth Not available.
UV 0 out of 12
Pollen 2.70 out of 12
Air Quality Not available.
Flu Activity Sporadic
METAR KCSQ 140235Z AUTO 30003KT 10SM BKN060 24/20 A2998 RMK AO2

More Conditions Fewer Conditions

Pressure 29.98 in
Visibility 10.0 miles
Clouds Mostly Cloudy 6000 ft
Dew Point 68 °F
Humidity 78%
Rainfall 0.00 in
Snow Depth Not available.
UV 0 out of 12
Pollen 2.70 out of 12
Air Quality Not available.
Flu Activity Sporadic
METAR KCSQ 140235Z AUTO 30003KT 10SM BKN060 24/20 A2998 RMK AO2

More Conditions Fewer Conditions

10-Day Weather Forecast

Almanac

Astronomy

Jul. 13, 2014 Rise Set
Actual Time 5:56 AM CDT 8:49 PM CDT
Civil Twilight 5:23 AM CDT 9:22 PM CDT
Nautical Twilight 4:42 AM CDT 10:03 PM CDT
Astronomical Twilight 3:54 AM CDT 10:51 PM CDT
Moon 9:36 PM CDT (7/13) 7:29 AM CDT (7/13)
Length of Visible Light 15h 58m
Length of Day
14h 52m
Tomorrow will be 1m 19s shorter.
Waning Gibbous, 96% of the Moon is Illuminated
Today
Waning Gibbous
Jul 18
Last Quarter
Jul 26
New
Aug 3
First Quarter
Aug 10
Full

Today's Extremes

State Highs State Lows

Community

WunderPhotos

Upload Photos

1,733,536 photos uploaded!

Nearby

Snow Depth

Station Depth Elevation
No new snow has been reported.

Earthquake Activity

City Distance Mag. Time & Date
No recent earthquake activity has been reported nearby.
Minimum magnitude displayed is 2.5.

Coastal Water Temperatures

Place Temperature
No Stations Reporting

Nearby Weather Stations

Station Location Temp. Heat Index Dew Point Humidity Wind Precip. Elev Updated Type
Out Here In The Wild, Creston, IA 75.5 °F 76 °F 70 °F 82% WSW  at  1.0 mph 0.00 in / hr 1269 ft 9:48 PM CDT Normal

Show More Stations Show Fewer Stations